Xiamen, Fujian

1:58 AM CST on December 20, 2014 (GMT +0800)
Gaoqi | Change Station
CLOSE
Current Station
Airport
Location: Xiamen,
Elevation: 59 ft
Nearby Weather Stations

Elev 59 ft 24.54 °N, 118.14 °E | Updated 58 minutes ago

Mostly Cloudy
Mostly Cloudy
55 °F
Feels Like 55 °F
N
0
Wind Variable Wind from North

Today
High -- | Low -- °F
--% Chance of Precip.
Yesterday
High -- | Low -- °F
Precip. -- in
6:46 AM 5:23 PM
Waning Crescent, 7% visible
Pressure 30.21 in
Visibility 4.3 miles
Clouds Mostly Cloudy 5000 ft
Dew Point 54 °F
Humidity 94%
Rainfall 0.00 in
Snow Depth Not available.
UV 0 out of 12
Pollen Not available.
Air Quality Not available.
Flu Activity Not available.
METAR ZSAM 191700Z 00000MPS 7000 BKN050 13/12 Q1023 NOSIG

More Conditions Fewer Conditions

Pressure 30.21 in
Visibility 4.3 miles
Clouds Mostly Cloudy 5000 ft
Dew Point 54 °F
Humidity 94%
Rainfall 0.00 in
Snow Depth Not available.
UV 0 out of 12
Pollen Not available.
Air Quality Not available.
Flu Activity Not available.
METAR ZSAM 191700Z 00000MPS 7000 BKN050 13/12 Q1023 NOSIG

More Conditions Fewer Conditions

10-Day Weather Forecast

Almanac

Astronomy

Dec. 20, 2014 Rise Set
Actual Time
Civil Twilight
Nautical Twilight
Astronomical Twilight
Moon
Length of Visible Light
Length of Day
Tomorrow will be .
, % of the Moon is Illuminated

Today's Extremes

Country Highs Country Lows

Community

WunderPhotos

Upload Photos

1,779,009 photos uploaded!

WunderBlogs® & News

Nearby

Air Quality

  Air Quality AQ Index Pollutant
Not available.

Snow Depth

Station Depth Elevation

Earthquake Activity

City Distance Mag. Time & Date
Minimum magnitude displayed is 2.5.

Coastal Water Temperatures

Place Temperature

Nearby Weather Stations